Details From CYUL - Montreal Pierre E Trudeau Intl
To RJAA - NARITA INTL
Flight Number -
Tags decoded
Created
Modified
Stats Distance 5,658 nm / 10,478 km
Max Altitude 0 ft / 0 m
Waypoints 8
Social Downloads 1
Likes 0
Share VATSIM

Download

Looking for another format? Having issues loading an existing format? Contact us
Advertisement - Login to hide

Notes

Requested: CYUL TASLI DUKPA COLTO BTT MUCLA NOGAL COSMO RJAA Unmatched points: COLTO

Route

CYUL TASLI DUKPA BTT MUCLA NOGAL COSMO RJAA

ID Type Via Altitude Latitude Longitude Leg Dist Tot Dist Heading (true) Name
O CYUL APT - 0 ft / 0 m 45.46727˚ -73.74403˚ - 0 nm - Montreal Pierre E Trudeau Intl
TASLI FIX - 0 ft / 0 m 55.22222˚ -85.00000˚ 725 nm 725 nm 328° / 319° -
DUKPA FIX - 0 ft / 0 m 65.15250˚ -110.00000˚ 944 nm 1670 nm 319° / 297° -
BTT VOR - 0 ft / 0 m 66.90500˚ -151.53589˚ 999 nm 2670 nm 295° / 257° BETTLES VOR-DME
MUCLA FIX - 0 ft / 0 m 61.58727˚ -174.50000˚ 673 nm 3343 nm 253° / 232° -
NOGAL FIX - 0 ft / 0 m 46.21667˚ 153.00333˚ 1448 nm 4792 nm 245° / 219° -
COSMO FIX - 0 ft / 0 m 35.57937˚ 140.51956˚ 851 nm 5644 nm 226° / 218° -
O RJAA APT - 0 ft / 0 m 35.77655˚ 140.38277˚ 13 nm 5657 nm 331° / 331° NARITA INTL

Altitude Profile

Advertisement - Login to hide

Weather


0- 5 10 15 20 25 30 35+ Temperature / ° C

Clouds and Precipitation
Forecast for 2017-12-14 18:00 UTC. Updated 24 minutes ago

Ground ~20,000 ft ~40,000 ft Winds

CYUL

Details ICAO CYUL (YUL)
Name Montreal Pierre E Trudeau Intl
Region Canada
Timezone America/Montreal (UTC-5.0)
Stats Elevation 117 ft / 36 m (AMSL)
Location 45.467269° -73.744028°
Runways 3
Magnetic Variation 14.322° W

METAR

CYUL 141700Z 26017KT 15SM FEW025 M15/M22 A2974 RMK CF1 SLP076

Decode

TAF

TAF CYUL 141438Z 1415/1512 25015G25KT P6SM FEW015 FEW210 FM141800 25018G28KT P6SM FEW020 FM150300 25012KT P6SM SKC BECMG 1508/1510 25006KT RMK NXT FCST BY 141800Z

Decode

Departure Runways

ID Width Length Bearing (true) Bearing (mag) Surface Threshold Offset Overrun Length
06L 200 ft / 61 m 11,020 ft / 3,359 m 42.62° 56.94° Asphalt 0 ft / 0 m 0 ft / 0 m
06R 200 ft / 61 m 9,706 ft / 2,958 m 41.23° 55.55° Asphalt 0 ft / 0 m 0 ft / 0 m
10 200 ft / 61 m 6,831 ft / 2,082 m 87.45° 101.77° Asphalt 0 ft / 0 m 0 ft / 0 m
24L 200 ft / 61 m 9,706 ft / 2,958 m 221.25° 235.57° Asphalt 0 ft / 0 m 0 ft / 0 m
24R 200 ft / 61 m 11,020 ft / 3,359 m 222.64° 236.96° Asphalt 0 ft / 0 m 0 ft / 0 m
28 200 ft / 61 m 6,831 ft / 2,082 m 267.47° 281.79° Asphalt 0 ft / 0 m 0 ft / 0 m

RJAA

Details ICAO RJAA (NRT)
Name NARITA INTL
Region Japan
Timezone Asia/Tokyo (UTC+9.0)
Stats Elevation 141 ft / 43 m (AMSL)
Location 35.776552° 140.382770°
Runways 2
Magnetic Variation 7.405° W

METAR

RJAA 141730Z VRB01KT CAVOK M01/M04 Q1024 NOSIG RMK A3025

Decode

TAF

TAF RJAA 141107Z 1412/1518 36005KT 9999 FEW030= TAF RJBB 141108Z 1412/1518 04010KT 9999 FEW020 SCT040 BECMG 1512/1515 17006KT

Decode

Destination Runways

ID Width Length Bearing (true) Bearing (mag) Surface Threshold Offset Overrun Length
16L 196 ft / 60 m 7,162 ft / 2,183 m 149.61° 157.02° Asphalt 190 ft / 58 m 0 ft / 0 m
16R 196 ft / 60 m 13,142 ft / 4,006 m 149.61° 157.02° Asphalt 0 ft / 0 m 410 ft / 125 m
34L 196 ft / 60 m 13,142 ft / 4,006 m 329.62° 337.03° Asphalt 0 ft / 0 m 415 ft / 126 m
34R 196 ft / 60 m 7,162 ft / 2,183 m 329.62° 337.03° Asphalt 190 ft / 58 m 0 ft / 0 m

Approach Navaids

Runway Type Ident Frequency Range Bearing (true) Bearing (mag) Slope Elevation
16L Localiser ITM 110.70 MHz 18 nm / 33 km 149.62° 157.02° - 141 ft / 43 m (AMSL)
16L Glidescope ITM 110.70 MHz 10 nm / 19 km 149.62° 157.02° 3.00° 141 ft / 43 m (AMSL)
16L DME ITM 110.70 MHz 18 nm / 33 km - - - 145 ft / 44 m (AMSL)
16R Localiser IKF 111.50 MHz 18 nm / 33 km 149.63° 157.03° - 141 ft / 43 m (AMSL)
16R Glidescope IKF 111.50 MHz 10 nm / 19 km 149.62° 157.02° 3.00° 141 ft / 43 m (AMSL)
16R DME IKF 111.50 MHz 18 nm / 33 km - - - 145 ft / 44 m (AMSL)
34L Localiser IYQ 111.90 MHz 18 nm / 33 km 329.61° 337.01° - 141 ft / 43 m (AMSL)
34L Glidescope IYQ 111.90 MHz 10 nm / 19 km 329.62° 337.02° 3.00° 141 ft / 43 m (AMSL)
34L DME IYQ 111.90 MHz 18 nm / 33 km - - - 153 ft / 47 m (AMSL)
34R Localiser ITJ 110.90 MHz 18 nm / 33 km 329.62° 337.02° - 141 ft / 43 m (AMSL)
34R Glidescope ITJ 110.90 MHz 10 nm / 19 km 329.62° 337.02° 3.00° 141 ft / 43 m (AMSL)
34R DME ITJ 110.90 MHz 18 nm / 33 km - - - 148 ft / 45 m (AMSL)

Popular Alternatives